Time;durP1;ratioP1;P1;durP2;ratioP2;P2;SDS_P1;SDS_P2;PMS_P1;PMS_P2;Temp;Humidity;BMP_temperature;BMP_pressure;BME280_temperature;BME280_humidity;BME280_pressure;Samples;Min_cycle;Max_cycle;Signal;HPM_P1;HPM_P2
2023/06/11 00:00:11;;;;;;;10.60;7.63;;;;;;;;;;764423;180;917208;-68
2023/06/11 00:02:41;;;;;;;10.93;7.97;;;;;;;;;;777274;180;918772;-69
2023/06/11 00:05:07;;;;;;;11.23;8.63;;;;;;;;;;765321;180;921590;-68
2023/06/11 00:07:30;;;;;;;13.77;9.03;;;;;;;;;;768847;179;922212;-69
2023/06/11 00:09:55;;;;;;;11.47;9.37;;;;;;;;;;762993;183;919057;-66
2023/06/11 00:12:21;;;;;;;15.63;8.80;;;;;;;;;;771602;180;813642;-65
2023/06/11 00:14:47;;;;;;;13.23;9.53;;;;;;;;;;765835;180;918755;-66
2023/06/11 00:17:13;;;;;;;15.50;9.30;;;;;;;;;;766304;180;914619;-66
2023/06/11 00:19:40;;;;;;;11.83;8.87;;;;;;;;;;773507;180;920911;-69
2023/06/11 00:22:05;;;;;;;15.50;10.30;;;;;;;;;;767130;180;816283;-66
2023/06/11 00:24:30;;;;;;;13.33;10.17;;;;;;;;;;768347;180;817128;-66
2023/06/11 00:26:59;;;;;;;14.30;10.82;;;;;;;;;;773668;181;867325;-65
2023/06/11 00:29:22;;;;;;;13.43;9.77;;;;;;;;;;767347;180;919269;-65
2023/06/11 00:31:48;;;;;;;17.23;10.03;;;;;;;;;;763693;182;918854;-65
2023/06/11 00:34:14;;;;;;;15.33;11.23;;;;;;;;;;767768;180;892524;-72
2023/06/11 00:36:40;;;;;;;19.43;11.03;;;;;;;;;;761241;182;897518;-69
2023/06/11 00:39:05;;;;;;;11.53;9.43;;;;;;;;;;759196;182;918825;-66
2023/06/11 00:41:31;;;;;;;12.30;10.97;;;;;;;;;;765585;180;918680;-65
2023/06/11 00:43:57;;;;;;;13.10;9.90;;;;;;;;;;767370;182;921309;-69
2023/06/11 00:46:23;;;;;;;14.87;12.23;;;;;;;;;;766423;180;915130;-71
2023/06/11 00:48:49;;;;;;;12.43;10.33;;;;;;;;;;765601;180;927215;-71
2023/06/11 00:51:15;;;;;;;14.33;11.47;;;;;;;;;;767251;180;919357;-71
2023/06/11 00:53:41;;;;;;;15.10;10.17;;;;;;;;;;764604;180;936281;-69
2023/06/11 00:56:07;;;;;;;13.67;9.10;;;;;;;;;;763941;180;919782;-69
2023/06/11 00:58:34;;;;;;;13.43;10.20;;;;;;;;;;768021;180;918864;-66
2023/06/11 01:00:59;;;;;;;16.50;12.73;;;;;;;;;;764603;180;919095;-71
2023/06/11 01:03:26;;;;;;;13.40;11.80;;;;;;;;;;759699;180;920259;-66
2023/06/11 01:05:54;;;;;;;13.35;11.95;;;;;;;;;;766802;180;918996;-71
2023/06/11 01:08:19;;;;;;;19.33;12.00;;;;;;;;;;771462;180;716293;-71
2023/06/11 01:10:45;;;;;;;14.63;10.70;;;;;;;;;;767040;182;918620;-64
2023/06/11 01:13:11;;;;;;;18.40;12.60;;;;;;;;;;766603;180;919232;-74
2023/06/11 01:15:37;;;;;;;12.33;10.53;;;;;;;;;;773553;179;817534;-72
2023/06/11 01:18:22;;;;;;;13.80;11.90;;;;;;;;;;764978;180;918858;-66
2023/06/11 01:21:00;;;;;;;13.73;12.27;;;;;;;;;;769632;180;915199;-66
2023/06/11 01:23:43;;;;;;;15.27;12.80;;;;;;;;;;754837;180;918608;-65
2023/06/11 01:26:15;;;;;;;13.77;11.37;;;;;;;;;;762317;182;818744;-65
2023/06/11 01:28:41;;;;;;;13.77;11.87;;;;;;;;;;757824;183;816266;-71
2023/06/11 01:31:07;;;;;;;15.38;11.65;;;;;;;;;;765562;180;918760;-66
2023/06/11 01:33:35;;;;;;;13.90;11.33;;;;;;;;;;770862;180;919338;-68
2023/06/11 01:35:59;;;;;;;14.50;12.93;;;;;;;;;;767555;180;919182;-65
2023/06/11 01:38:30;;;;;;;14.57;12.00;;;;;;;;;;766760;180;918440;-69
2023/06/11 01:40:51;;;;;;;12.33;11.00;;;;;;;;;;768203;180;919534;-69
2023/06/11 01:43:17;;;;;;;12.57;11.27;;;;;;;;;;767206;180;920973;-69
2023/06/11 01:45:43;;;;;;;11.90;10.30;;;;;;;;;;762588;180;921982;-69
2023/06/11 01:48:08;;;;;;;13.27;11.90;;;;;;;;;;766697;180;917093;-65
2023/06/11 01:50:34;;;;;;;16.33;11.43;;;;;;;;;;761138;183;896124;-66
2023/06/11 01:53:00;;;;;;;16.30;11.60;;;;;;;;;;760737;181;912781;-69
2023/06/11 01:55:26;;;;;;;16.13;12.20;;;;;;;;;;738276;187;955496;-69
2023/06/11 01:57:52;;;;;;;16.03;11.73;;;;;;;;;;753659;187;931079;-68
2023/06/11 02:00:18;;;;;;;14.40;12.33;;;;;;;;;;747931;183;918358;-65
2023/06/11 02:02:43;;;;;;;13.97;10.67;;;;;;;;;;750562;184;918596;-65
2023/06/11 02:05:09;;;;;;;17.50;12.23;;;;;;;;;;752935;186;916765;-66
2023/06/11 02:07:36;;;;;;;13.77;11.30;;;;;;;;;;756640;183;918908;-73
2023/06/11 02:10:01;;;;;;;14.23;10.90;;;;;;;;;;752265;184;910897;-66
2023/06/11 02:12:27;;;;;;;17.40;13.60;;;;;;;;;;758398;183;918710;-67
2023/06/11 02:14:53;;;;;;;14.47;12.83;;;;;;;;;;765269;180;919174;-66
2023/06/11 02:17:19;;;;;;;12.20;10.90;;;;;;;;;;754328;184;926642;-67
2023/06/11 02:19:44;;;;;;;13.90;12.48;;;;;;;;;;757615;184;925982;-66
2023/06/11 02:22:10;;;;;;;14.10;11.20;;;;;;;;;;768811;180;917146;-66
2023/06/11 02:24:36;;;;;;;13.30;11.90;;;;;;;;;;768065;180;923101;-66
2023/06/11 02:27:02;;;;;;;15.75;11.07;;;;;;;;;;767578;180;917400;-67
2023/06/11 02:29:28;;;;;;;13.37;11.73;;;;;;;;;;773840;180;918441;-67
2023/06/11 02:31:54;;;;;;;15.10;11.80;;;;;;;;;;765183;180;919056;-70
2023/06/11 02:34:20;;;;;;;13.80;12.30;;;;;;;;;;765248;180;918074;-67
2023/06/11 02:36:45;;;;;;;12.23;9.77;;;;;;;;;;769472;180;919334;-71
2023/06/11 02:39:11;;;;;;;20.17;11.40;;;;;;;;;;764589;180;915979;-68
2023/06/11 02:41:37;;;;;;;14.20;11.52;;;;;;;;;;766601;180;919045;-65
2023/06/11 02:44:03;;;;;;;16.20;11.77;;;;;;;;;;763709;180;914365;-68
2023/06/11 02:46:29;;;;;;;13.17;10.93;;;;;;;;;;772889;180;814494;-69
2023/06/11 02:48:55;;;;;;;15.20;11.47;;;;;;;;;;767749;180;914237;-69
2023/06/11 02:51:21;;;;;;;14.27;12.13;;;;;;;;;;766636;180;1022306;-65
2023/06/11 02:53:46;;;;;;;12.23;10.97;;;;;;;;;;768518;180;924453;-65
2023/06/11 02:56:12;;;;;;;15.03;12.90;;;;;;;;;;764807;180;916550;-65
2023/06/11 02:58:38;;;;;;;15.17;13.50;;;;;;;;;;762509;180;919189;-69
2023/06/11 03:01:04;;;;;;;20.33;13.40;;;;;;;;;;769462;180;919561;-64
2023/06/11 03:03:30;;;;;;;14.97;12.40;;;;;;;;;;765709;180;921435;-65
2023/06/11 03:05:56;;;;;;;17.90;14.07;;;;;;;;;;765654;180;918727;-65
2023/06/11 03:08:21;;;;;;;15.30;13.63;;;;;;;;;;764704;180;918485;-65
2023/06/11 03:10:47;;;;;;;13.57;11.93;;;;;;;;;;775150;180;919306;-64
2023/06/11 03:13:13;;;;;;;18.77;10.80;;;;;;;;;;767989;180;918613;-66
2023/06/11 03:15:39;;;;;;;18.60;13.97;;;;;;;;;;764465;180;919228;-65
2023/06/11 03:18:05;;;;;;;16.00;13.40;;;;;;;;;;768203;180;817174;-65
2023/06/11 03:20:31;;;;;;;26.13;13.30;;;;;;;;;;765055;180;915433;-65
2023/06/11 03:22:57;;;;;;;15.23;12.93;;;;;;;;;;763389;182;915893;-66
2023/06/11 03:25:22;;;;;;;17.50;11.80;;;;;;;;;;769992;180;919322;-63
2023/06/11 03:27:48;;;;;;;14.80;12.70;;;;;;;;;;766651;180;917884;-66
2023/06/11 03:30:14;;;;;;;15.37;11.90;;;;;;;;;;764113;182;916775;-65
2023/06/11 03:32:40;;;;;;;15.57;13.23;;;;;;;;;;765051;180;883892;-65
2023/06/11 03:35:06;;;;;;;15.13;11.80;;;;;;;;;;765773;180;841929;-66
2023/06/11 03:37:32;;;;;;;16.83;13.17;;;;;;;;;;764835;180;760362;-63
2023/06/11 03:39:58;;;;;;;13.03;10.30;;;;;;;;;;767524;180;918882;-64
2023/06/11 03:42:24;;;;;;;17.30;11.60;;;;;;;;;;768870;183;917425;-63
2023/06/11 03:44:49;;;;;;;17.23;13.50;;;;;;;;;;769526;180;816456;-64
2023/06/11 03:47:15;;;;;;;15.40;13.63;;;;;;;;;;771557;180;919343;-63
2023/06/11 03:49:41;;;;;;;22.07;13.87;;;;;;;;;;756988;183;918228;-67
2023/06/11 03:52:07;;;;;;;12.50;10.37;;;;;;;;;;755279;182;918801;-68
2023/06/11 03:54:33;;;;;;;14.03;11.20;;;;;;;;;;758732;183;918428;-65
2023/06/11 03:56:59;;;;;;;20.17;14.40;;;;;;;;;;760638;183;922142;-66
2023/06/11 03:59:25;;;;;;;20.73;16.13;;;;;;;;;;759532;183;918987;-66
2023/06/11 04:01:51;;;;;;;17.50;13.77;;;;;;;;;;759477;183;919446;-67
2023/06/11 04:04:16;;;;;;;18.97;14.17;;;;;;;;;;757443;183;918350;-64
2023/06/11 04:06:42;;;;;;;22.33;16.70;;;;;;;;;;768521;180;918886;-64
2023/06/11 04:09:08;;;;;;;20.47;15.80;;;;;;;;;;767580;180;918396;-62
2023/06/11 04:11:34;;;;;;;16.75;14.60;;;;;;;;;;767011;180;919514;-63
2023/06/11 04:14:00;;;;;;;16.10;12.40;;;;;;;;;;768178;181;920333;-63
2023/06/11 04:16:26;;;;;;;16.67;13.60;;;;;;;;;;762226;180;922761;-66
2023/06/11 04:18:52;;;;;;;13.85;11.48;;;;;;;;;;759714;182;920098;-65
2023/06/11 04:21:17;;;;;;;20.77;14.37;;;;;;;;;;763577;183;814277;-67
2023/06/11 04:23:43;;;;;;;14.53;12.50;;;;;;;;;;760570;183;919791;-65
2023/06/11 04:26:10;;;;;;;18.90;16.90;;;;;;;;;;754046;183;920211;-63
2023/06/11 04:28:36;;;;;;;20.60;18.50;;;;;;;;;;757118;183;917598;-63
2023/06/11 04:31:01;;;;;;;16.90;13.47;;;;;;;;;;760219;183;916812;-63
2023/06/11 04:33:32;;;;;;;18.60;15.37;;;;;;;;;;753209;183;919420;-67
2023/06/11 04:35:53;;;;;;;22.10;15.75;;;;;;;;;;756120;183;920437;-63
2023/06/11 04:38:19;;;;;;;19.27;16.63;;;;;;;;;;758708;183;924775;-63
2023/06/11 04:40:45;;;;;;;19.70;16.20;;;;;;;;;;763531;183;941579;-63
2023/06/11 04:43:10;;;;;;;22.20;16.10;;;;;;;;;;769366;180;839063;-62
2023/06/11 04:45:38;;;;;;;16.60;14.80;;;;;;;;;;759494;183;917147;-64
2023/06/11 04:48:03;;;;;;;16.30;11.60;;;;;;;;;;770883;180;919440;-66
2023/06/11 04:50:28;;;;;;;17.53;15.17;;;;;;;;;;767639;177;918852;-64
2023/06/11 04:52:56;;;;;;;22.60;15.40;;;;;;;;;;768769;180;924020;-63
2023/06/11 04:55:24;;;;;;;23.53;16.53;;;;;;;;;;772072;180;924824;-68
2023/06/11 04:57:46;;;;;;;19.60;16.03;;;;;;;;;;761537;180;919483;-66
2023/06/11 05:00:13;;;;;;;21.90;15.00;;;;;;;;;;750720;184;915612;-64
2023/06/11 05:02:38;;;;;;;19.17;15.67;;;;;;;;;;767837;179;911240;-68
2023/06/11 05:05:05;;;;;;;13.37;10.60;;;;;;;;;;765377;180;915046;-71
2023/06/11 05:07:31;;;;;;;13.63;11.07;;;;;;;;;;747402;184;880296;-65
2023/06/11 05:09:56;;;;;;;19.40;14.90;;;;;;;;;;748942;184;910075;-63
2023/06/11 05:12:22;;;;;;;24.23;15.80;;;;;;;;;;764378;180;918971;-63
2023/06/11 05:14:47;;;;;;;16.60;13.20;;;;;;;;;;766532;180;917828;-63
2023/06/11 05:17:15;;;;;;;16.03;13.47;;;;;;;;;;766614;180;916366;-63
2023/06/11 05:19:39;;;;;;;16.93;15.00;;;;;;;;;;771691;180;923959;-63
2023/06/11 05:22:05;;;;;;;18.47;14.40;;;;;;;;;;765886;182;919923;-63
2023/06/11 05:24:31;;;;;;;14.73;12.73;;;;;;;;;;764304;180;918118;-68
2023/06/11 05:26:57;;;;;;;18.80;14.87;;;;;;;;;;768893;180;821153;-66
2023/06/11 05:29:23;;;;;;;17.73;14.50;;;;;;;;;;762209;180;920821;-62
2023/06/11 05:31:48;;;;;;;18.50;13.10;;;;;;;;;;763837;181;919423;-63
2023/06/11 05:34:14;;;;;;;11.30;8.60;;;;;;;;;;768778;180;918364;-62
2023/06/11 05:36:42;;;;;;;16.60;11.37;;;;;;;;;;763481;180;911317;-63
2023/06/11 05:39:06;;;;;;;20.17;14.70;;;;;;;;;;762018;180;918810;-64
2023/06/11 05:41:32;;;;;;;14.87;11.57;;;;;;;;;;763831;180;918620;-70
2023/06/11 05:43:58;;;;;;;13.67;12.17;;;;;;;;;;753327;183;919246;-68
2023/06/11 05:46:25;;;;;;;17.57;12.37;;;;;;;;;;764564;180;902889;-67
2023/06/11 05:48:49;;;;;;;14.93;12.63;;;;;;;;;;765693;180;917915;-65
2023/06/11 05:51:15;;;;;;;12.30;8.80;;;;;;;;;;767889;180;916971;-68
2023/06/11 05:53:41;;;;;;;15.70;13.10;;;;;;;;;;764171;180;914687;-64
2023/06/11 05:56:07;;;;;;;16.23;13.80;;;;;;;;;;764589;180;918552;-67
2023/06/11 05:58:33;;;;;;;13.87;11.83;;;;;;;;;;769549;180;918468;-62
2023/06/11 06:01:02;;;;;;;10.17;8.97;;;;;;;;;;765432;182;920021;-64
2023/06/11 06:03:27;;;;;;;14.43;12.20;;;;;;;;;;767172;181;919147;-65
2023/06/11 06:05:53;;;;;;;17.70;12.23;;;;;;;;;;768010;180;915151;-62
2023/06/11 06:08:19;;;;;;;16.03;13.10;;;;;;;;;;767405;180;915630;-70
2023/06/11 06:10:45;;;;;;;14.83;11.70;;;;;;;;;;764300;182;915280;-68
2023/06/11 06:13:11;;;;;;;15.57;12.80;;;;;;;;;;766287;180;920465;-68
2023/06/11 06:15:36;;;;;;;15.52;13.75;;;;;;;;;;770401;180;815730;-64
2023/06/11 06:18:02;;;;;;;16.20;12.67;;;;;;;;;;765371;180;917764;-62
2023/06/11 06:20:28;;;;;;;13.68;11.73;;;;;;;;;;771286;180;918844;-63
2023/06/11 06:22:54;;;;;;;14.70;13.20;;;;;;;;;;761695;183;918869;-63
2023/06/11 06:25:20;;;;;;;13.77;12.13;;;;;;;;;;758952;180;861460;-62
2023/06/11 06:27:46;;;;;;;14.45;12.85;;;;;;;;;;766683;180;919168;-62
2023/06/11 06:30:13;;;;;;;12.25;10.70;;;;;;;;;;759673;183;914875;-62
2023/06/11 06:32:39;;;;;;;15.03;11.87;;;;;;;;;;765234;182;917974;-64
2023/06/11 06:35:05;;;;;;;16.20;11.77;;;;;;;;;;755992;183;914558;-69
2023/06/11 06:37:31;;;;;;;15.03;11.23;;;;;;;;;;755797;183;912171;-72
2023/06/11 06:39:57;;;;;;;12.43;9.93;;;;;;;;;;762364;183;816646;-64
2023/06/11 06:42:22;;;;;;;14.03;10.13;;;;;;;;;;757809;180;919784;-64
2023/06/11 06:44:48;;;;;;;14.07;9.60;;;;;;;;;;765568;180;919373;-70
2023/06/11 06:47:14;;;;;;;12.50;7.87;;;;;;;;;;766839;180;917225;-69
2023/06/11 06:49:40;;;;;;;11.63;9.37;;;;;;;;;;754861;183;915523;-68
2023/06/11 06:52:06;;;;;;;11.70;8.40;;;;;;;;;;757274;183;878866;-65
2023/06/11 06:54:32;;;;;;;11.17;9.90;;;;;;;;;;769288;180;914592;-67
2023/06/11 06:56:58;;;;;;;10.37;8.80;;;;;;;;;;768869;180;818712;-64
2023/06/11 06:59:24;;;;;;;12.40;10.33;;;;;;;;;;765487;180;918506;-67
2023/06/11 07:01:50;;;;;;;10.37;9.23;;;;;;;;;;761734;182;918896;-69
2023/06/11 07:04:16;;;;;;;16.13;10.17;;;;;;;;;;769500;180;918089;-69
2023/06/11 07:06:42;;;;;;;14.50;8.63;;;;;;;;;;758206;183;848039;-67
2023/06/11 07:09:08;;;;;;;12.57;8.90;;;;;;;;;;764086;183;860656;-63
2023/06/11 07:11:33;;;;;;;10.07;8.97;;;;;;;;;;763157;183;915640;-68
2023/06/11 07:14:00;;;;;;;9.57;8.20;;;;;;;;;;768990;180;816424;-66
2023/06/11 07:16:25;;;;;;;8.83;7.50;;;;;;;;;;769863;180;824823;-63
2023/06/11 07:18:51;;;;;;;9.83;8.80;;;;;;;;;;769816;180;815030;-68
2023/06/11 07:21:17;;;;;;;13.60;9.03;;;;;;;;;;767919;180;907660;-66
2023/06/11 07:23:42;;;;;;;12.57;7.30;;;;;;;;;;770567;180;749625;-68
2023/06/11 07:26:10;;;;;;;10.60;8.53;;;;;;;;;;765056;182;825184;-62
2023/06/11 07:28:34;;;;;;;14.27;10.10;;;;;;;;;;771563;180;940598;-63
2023/06/11 07:31:00;;;;;;;12.87;8.30;;;;;;;;;;766343;180;918810;-63
2023/06/11 07:33:26;;;;;;;12.40;6.80;;;;;;;;;;765390;180;896118;-64
2023/06/11 07:35:54;;;;;;;15.83;7.80;;;;;;;;;;769423;182;909241;-68
2023/06/11 07:38:18;;;;;;;11.00;8.30;;;;;;;;;;756833;183;921569;-63
2023/06/11 07:40:44;;;;;;;11.10;9.83;;;;;;;;;;758291;181;915951;-68
2023/06/11 07:43:09;;;;;;;11.37;7.70;;;;;;;;;;772400;180;626629;-63
2023/06/11 07:45:35;;;;;;;8.27;7.33;;;;;;;;;;762906;181;915417;-71
2023/06/11 07:48:02;;;;;;;11.50;8.63;;;;;;;;;;769125;180;631029;-63
2023/06/11 07:50:27;;;;;;;9.63;7.57;;;;;;;;;;766750;180;916842;-69
2023/06/11 07:52:53;;;;;;;12.27;7.57;;;;;;;;;;769055;182;827597;-70
2023/06/11 07:55:19;;;;;;;9.57;8.37;;;;;;;;;;764012;180;913451;-66
2023/06/11 07:57:44;;;;;;;7.67;6.40;;;;;;;;;;767674;180;914583;-73
2023/06/11 08:00:13;;;;;;;12.30;8.27;;;;;;;;;;771701;180;719727;-63
2023/06/11 08:02:36;;;;;;;9.93;7.73;;;;;;;;;;764541;180;917662;-65
2023/06/11 08:05:02;;;;;;;9.00;7.50;;;;;;;;;;765114;180;819338;-71
2023/06/11 08:07:28;;;;;;;10.07;8.80;;;;;;;;;;770188;182;809089;-65
2023/06/11 08:09:54;;;;;;;9.30;6.80;;;;;;;;;;767939;180;817530;-73
2023/06/11 08:12:20;;;;;;;8.23;7.03;;;;;;;;;;767540;180;813652;-64
2023/06/11 08:14:46;;;;;;;9.15;7.43;;;;;;;;;;766717;180;820597;-69
2023/06/11 08:17:12;;;;;;;17.30;9.60;;;;;;;;;;769211;180;916466;-68
2023/06/11 08:19:38;;;;;;;9.43;7.63;;;;;;;;;;764858;180;919812;-71
2023/06/11 08:22:03;;;;;;;9.47;8.47;;;;;;;;;;766057;180;918621;-66
2023/06/11 08:24:30;;;;;;;13.17;9.20;;;;;;;;;;767484;180;918606;-62
2023/06/11 08:26:55;;;;;;;9.30;7.93;;;;;;;;;;765361;180;919093;-68
2023/06/11 08:29:21;;;;;;;12.00;7.20;;;;;;;;;;764148;180;914067;-63
2023/06/11 08:31:47;;;;;;;8.20;7.40;;;;;;;;;;777008;180;911346;-69
2023/06/11 08:34:13;;;;;;;13.03;8.83;;;;;;;;;;755918;183;911103;-67
2023/06/11 08:36:40;;;;;;;10.50;6.83;;;;;;;;;;757397;183;920412;-63
2023/06/11 08:39:05;;;;;;;6.60;6.00;;;;;;;;;;767167;183;918765;-67
2023/06/11 08:41:31;;;;;;;13.00;5.93;;;;;;;;;;758414;182;920340;-63
2023/06/11 08:43:56;;;;;;;7.63;5.90;;;;;;;;;;767710;180;920330;-66
2023/06/11 08:46:22;;;;;;;8.40;6.47;;;;;;;;;;765190;180;872585;-60
2023/06/11 08:48:48;;;;;;;11.10;6.43;;;;;;;;;;770207;180;914946;-69
2023/06/11 08:51:14;;;;;;;9.40;6.90;;;;;;;;;;765260;180;920358;-61
2023/06/11 08:53:40;;;;;;;7.05;6.35;;;;;;;;;;763378;180;920501;-62
2023/06/11 08:56:06;;;;;;;8.83;7.33;;;;;;;;;;770054;180;818391;-64
2023/06/11 08:58:32;;;;;;;6.03;5.30;;;;;;;;;;768481;180;864797;-63
2023/06/11 09:00:58;;;;;;;6.33;5.07;;;;;;;;;;767419;180;922120;-65
2023/06/11 09:03:25;;;;;;;9.23;6.50;;;;;;;;;;771104;180;920974;-62
2023/06/11 09:05:50;;;;;;;9.33;7.43;;;;;;;;;;767373;180;920282;-63
2023/06/11 09:08:15;;;;;;;9.27;6.70;;;;;;;;;;766038;180;824263;-67
2023/06/11 09:10:48;;;;;;;8.73;6.43;;;;;;;;;;766207;180;919115;-66
2023/06/11 09:13:13;;;;;;;10.10;7.63;;;;;;;;;;768958;180;918469;-62
2023/06/11 09:15:39;;;;;;;7.83;6.93;;;;;;;;;;765352;180;816814;-66
2023/06/11 09:18:05;;;;;;;9.00;7.17;;;;;;;;;;765439;180;817004;-64
2023/06/11 09:20:31;;;;;;;15.40;7.00;;;;;;;;;;769928;180;918640;-72
2023/06/11 09:22:57;;;;;;;7.70;6.80;;;;;;;;;;766011;182;817904;-72
2023/06/11 09:25:23;;;;;;;8.27;5.97;;;;;;;;;;768107;180;920844;-70
2023/06/11 09:27:48;;;;;;;8.47;7.20;;;;;;;;;;762950;180;919878;-70
2023/06/11 09:30:17;;;;;;;8.40;7.07;;;;;;;;;;769858;180;876798;-69
2023/06/11 09:32:46;;;;;;;11.25;6.68;;;;;;;;;;765060;180;919006;-66
2023/06/11 09:35:12;;;;;;;9.38;6.12;;;;;;;;;;765087;180;858634;-62
2023/06/11 09:37:38;;;;;;;7.40;6.33;;;;;;;;;;770440;180;916172;-63
2023/06/11 09:40:05;;;;;;;6.77;5.97;;;;;;;;;;763958;183;831696;-63
2023/06/11 09:42:30;;;;;;;10.17;6.93;;;;;;;;;;757071;180;918133;-66
2023/06/11 09:44:58;;;;;;;7.47;6.17;;;;;;;;;;770110;180;919626;-61
2023/06/11 09:47:24;;;;;;;8.00;5.73;;;;;;;;;;771675;180;918512;-65
2023/06/11 09:49:50;;;;;;;11.13;8.00;;;;;;;;;;765530;180;922215;-62
2023/06/11 09:52:16;;;;;;;10.07;8.17;;;;;;;;;;764829;180;923091;-63
2023/06/11 09:54:41;;;;;;;11.33;8.00;;;;;;;;;;769918;180;919210;-64
2023/06/11 09:57:07;;;;;;;9.10;7.00;;;;;;;;;;762058;180;919341;-63
2023/06/11 09:59:33;;;;;;;18.23;9.40;;;;;;;;;;762584;182;919059;-58
2023/06/11 10:01:59;;;;;;;21.43;13.90;;;;;;;;;;770641;180;918348;-60
2023/06/11 10:04:25;;;;;;;21.50;13.97;;;;;;;;;;764724;180;919588;-61
2023/06/11 10:06:51;;;;;;;18.53;7.30;;;;;;;;;;769040;180;908690;-60
2023/06/11 10:09:17;;;;;;;17.23;13.23;;;;;;;;;;769342;180;919981;-62
2023/06/11 10:11:43;;;;;;;12.10;6.80;;;;;;;;;;769195;180;919863;-60
2023/06/11 10:14:11;;;;;;;7.30;4.90;;;;;;;;;;761407;182;921463;-62
2023/06/11 10:16:36;;;;;;;7.90;5.13;;;;;;;;;;765821;180;917478;-63
2023/06/11 10:19:03;;;;;;;16.43;5.60;;;;;;;;;;770939;180;919523;-61
2023/06/11 10:21:33;;;;;;;6.10;5.10;;;;;;;;;;765584;180;919342;-62
2023/06/11 10:23:59;;;;;;;7.43;5.97;;;;;;;;;;763973;180;918891;-61
2023/06/11 10:26:26;;;;;;;6.53;5.10;;;;;;;;;;765492;182;822619;-63
2023/06/11 10:28:51;;;;;;;8.00;5.20;;;;;;;;;;767327;180;818813;-61
2023/06/11 10:31:22;;;;;;;6.60;5.30;;;;;;;;;;763867;180;918555;-63
2023/06/11 10:33:48;;;;;;;7.70;5.67;;;;;;;;;;768762;180;919070;-62
2023/06/11 10:36:20;;;;;;;5.03;3.67;;;;;;;;;;768098;181;919006;-61
2023/06/11 10:38:46;;;;;;;7.80;5.77;;;;;;;;;;765573;181;820602;-63
2023/06/11 10:41:11;;;;;;;8.93;4.70;;;;;;;;;;764560;180;883641;-61
2023/06/11 10:43:37;;;;;;;9.63;5.55;;;;;;;;;;768048;180;817436;-61
2023/06/11 10:46:03;;;;;;;8.10;6.07;;;;;;;;;;768068;180;891806;-63
2023/06/11 10:48:29;;;;;;;14.17;9.30;;;;;;;;;;767241;180;816967;-63
2023/06/11 10:51:00;;;;;;;17.77;7.03;;;;;;;;;;766774;179;865652;-62
2023/06/11 10:53:25;;;;;;;13.93;10.33;;;;;;;;;;769928;180;861073;-64
2023/06/11 10:55:51;;;;;;;12.53;7.03;;;;;;;;;;770931;180;741164;-63
2023/06/11 10:58:20;;;;;;;9.27;4.33;;;;;;;;;;766678;180;874966;-63
2023/06/11 11:00:46;;;;;;;8.07;5.23;;;;;;;;;;767229;180;919096;-63
2023/06/11 11:03:12;;;;;;;8.90;5.47;;;;;;;;;;771167;180;917999;-62
2023/06/11 11:05:38;;;;;;;8.23;4.63;;;;;;;;;;766148;180;880787;-64
2023/06/11 11:08:04;;;;;;;5.80;4.72;;;;;;;;;;766752;180;936430;-64
2023/06/11 11:10:29;;;;;;;9.90;5.37;;;;;;;;;;770727;180;920880;-62
2023/06/11 11:12:55;;;;;;;6.67;4.40;;;;;;;;;;765186;180;918999;-62
2023/06/11 11:15:21;;;;;;;7.13;3.80;;;;;;;;;;762554;180;920223;-64
2023/06/11 11:17:47;;;;;;;11.70;4.90;;;;;;;;;;766347;180;920180;-63
2023/06/11 11:20:13;;;;;;;5.73;5.13;;;;;;;;;;771857;181;922993;-63
2023/06/11 11:22:39;;;;;;;6.67;4.30;;;;;;;;;;768797;180;846464;-61
2023/06/11 11:25:06;;;;;;;8.10;6.00;;;;;;;;;;767074;180;816513;-61
2023/06/11 11:27:32;;;;;;;13.83;6.57;;;;;;;;;;771361;180;915479;-64
2023/06/11 11:29:58;;;;;;;10.53;8.30;;;;;;;;;;763612;180;906369;-63
2023/06/11 11:32:24;;;;;;;8.07;5.07;;;;;;;;;;764111;179;816012;-64
2023/06/11 11:34:50;;;;;;;7.37;6.07;;;;;;;;;;771272;180;899339;-64
2023/06/11 11:37:16;;;;;;;9.90;5.60;;;;;;;;;;759472;180;914826;-65
2023/06/11 11:39:42;;;;;;;10.30;5.00;;;;;;;;;;772706;180;913683;-64
2023/06/11 11:42:09;;;;;;;5.90;4.93;;;;;;;;;;746924;184;920525;-66
2023/06/11 11:44:40;;;;;;;5.53;4.80;;;;;;;;;;771633;180;821803;-66
2023/06/11 11:47:05;;;;;;;10.37;4.87;;;;;;;;;;769965;180;783780;-65
2023/06/11 11:49:34;;;;;;;7.70;5.30;;;;;;;;;;774153;180;649147;-65
2023/06/11 11:52:00;;;;;;;8.65;7.35;;;;;;;;;;770695;180;626937;-64
2023/06/11 11:54:24;;;;;;;7.80;5.00;;;;;;;;;;762505;183;634727;-66
2023/06/11 11:56:50;;;;;;;7.23;5.50;;;;;;;;;;765136;182;628777;-74
2023/06/11 11:59:16;;;;;;;7.63;5.67;;;;;;;;;;760247;183;620109;-74
2023/06/11 12:01:42;;;;;;;12.43;5.47;;;;;;;;;;763809;183;629854;-64
2023/06/11 12:04:08;;;;;;;5.80;4.67;;;;;;;;;;770582;180;919657;-63
2023/06/11 12:06:33;;;;;;;7.00;4.77;;;;;;;;;;770682;180;930455;-64
2023/06/11 12:08:59;;;;;;;7.80;4.70;;;;;;;;;;770350;180;919824;-64
2023/06/11 12:11:25;;;;;;;6.13;4.90;;;;;;;;;;766873;180;817960;-70
2023/06/11 12:13:51;;;;;;;6.17;4.87;;;;;;;;;;762878;183;1018696;-71
2023/06/11 12:16:17;;;;;;;3.97;3.33;;;;;;;;;;774063;180;618741;-63
2023/06/11 12:18:43;;;;;;;6.23;4.20;;;;;;;;;;779335;180;736299;-66
2023/06/11 12:21:09;;;;;;;6.20;4.60;;;;;;;;;;763832;183;624112;-75
2023/06/11 12:23:34;;;;;;;6.67;5.20;;;;;;;;;;756366;183;817543;-66
2023/06/11 12:26:01;;;;;;;5.70;4.40;;;;;;;;;;761607;183;917982;-66
2023/06/11 12:28:26;;;;;;;8.90;4.40;;;;;;;;;;758797;183;938682;-80
2023/06/11 12:30:52;;;;;;;6.93;4.73;;;;;;;;;;751945;183;816255;-67
2023/06/11 12:33:18;;;;;;;6.43;5.03;;;;;;;;;;765039;183;818172;-66
2023/06/11 12:35:44;;;;;;;8.90;6.00;;;;;;;;;;759880;183;919046;-76
2023/06/11 12:38:10;;;;;;;8.53;5.20;;;;;;;;;;765386;180;871375;-72
2023/06/11 12:40:36;;;;;;;5.70;4.03;;;;;;;;;;768487;180;914444;-76
2023/06/11 12:43:01;;;;;;;7.30;5.73;;;;;;;;;;752253;183;910642;-64
2023/06/11 12:45:27;;;;;;;5.43;4.10;;;;;;;;;;755784;184;912130;-72
2023/06/11 12:47:53;;;;;;;5.33;4.70;;;;;;;;;;757222;183;919035;-65
2023/06/11 12:50:19;;;;;;;4.50;3.23;;;;;;;;;;766817;182;918535;-72
2023/06/11 12:52:45;;;;;;;6.73;5.80;;;;;;;;;;756336;184;919469;-63
2023/06/11 12:55:11;;;;;;;7.40;5.50;;;;;;;;;;761520;180;919459;-65
2023/06/11 12:57:36;;;;;;;6.03;5.17;;;;;;;;;;769519;180;918207;-76
2023/06/11 13:00:03;;;;;;;10.70;6.43;;;;;;;;;;765642;180;916197;-64
2023/06/11 13:02:29;;;;;;;8.67;5.30;;;;;;;;;;765186;180;915516;-73
2023/06/11 13:04:54;;;;;;;11.73;5.10;;;;;;;;;;769171;182;817241;-76
2023/06/11 13:07:20;;;;;;;5.87;5.13;;;;;;;;;;763787;180;915836;-75
2023/06/11 13:09:47;;;;;;;6.57;4.73;;;;;;;;;;763004;180;919292;-64
2023/06/11 13:12:12;;;;;;;7.25;4.62;;;;;;;;;;767862;180;918305;-73
2023/06/11 13:14:38;;;;;;;5.20;4.70;;;;;;;;;;768128;182;922369;-64
2023/06/11 13:17:04;;;;;;;7.07;4.73;;;;;;;;;;769217;180;911746;-76
2023/06/11 13:19:30;;;;;;;5.10;4.60;;;;;;;;;;767281;180;853751;-76
2023/06/11 13:21:56;;;;;;;4.77;4.27;;;;;;;;;;769939;180;919099;-65
2023/06/11 13:24:24;;;;;;;8.30;4.90;;;;;;;;;;765299;180;904176;-65
2023/06/11 13:26:47;;;;;;;5.50;4.30;;;;;;;;;;765501;180;918487;-77
2023/06/11 13:29:13;;;;;;;6.17;4.80;;;;;;;;;;768394;182;919305;-76
2023/06/11 13:31:39;;;;;;;6.93;4.87;;;;;;;;;;764566;180;914885;-65
2023/06/11 13:34:05;;;;;;;8.77;5.90;;;;;;;;;;763505;180;916103;-65
2023/06/11 13:36:32;;;;;;;7.17;4.50;;;;;;;;;;767403;180;921018;-73
2023/06/11 13:38:57;;;;;;;8.13;4.90;;;;;;;;;;769582;182;620298;-78
2023/06/11 13:41:25;;;;;;;9.03;5.70;;;;;;;;;;765074;180;938835;-78
2023/06/11 13:43:49;;;;;;;12.20;6.47;;;;;;;;;;768070;180;818569;-73
2023/06/11 13:46:15;;;;;;;5.73;3.87;;;;;;;;;;772617;181;815134;-76
2023/06/11 13:48:41;;;;;;;9.30;4.27;;;;;;;;;;769111;180;815948;-75
2023/06/11 13:51:07;;;;;;;4.87;3.27;;;;;;;;;;764433;180;947170;-75
2023/06/11 13:53:33;;;;;;;6.53;4.83;;;;;;;;;;768477;180;917701;-75
2023/06/11 13:55:59;;;;;;;5.80;4.30;;;;;;;;;;765391;180;911438;-73
2023/06/11 13:58:25;;;;;;;6.10;4.97;;;;;;;;;;761677;180;913872;-74
2023/06/11 14:00:50;;;;;;;6.70;4.40;;;;;;;;;;770048;180;915993;-75
2023/06/11 14:03:16;;;;;;;5.70;5.00;;;;;;;;;;767158;180;958829;-75
2023/06/11 14:05:42;;;;;;;7.53;5.00;;;;;;;;;;765655;180;925293;-66
2023/06/11 14:08:08;;;;;;;7.00;5.20;;;;;;;;;;764423;180;874675;-68